sensor_id;sensor_type;location;lat;lon;timestamp;pressure;altitude;pressure_sealevel;temperature;humidity
20983;BME280;10650;51.528;6.748;2023-01-25T00:00:09;103538.66;;;3.42;68.20
20983;BME280;10650;51.528;6.748;2023-01-25T00:02:37;103533.97;;;3.38;68.02
20983;BME280;10650;51.528;6.748;2023-01-25T00:05:05;103533.16;;;3.39;68.27
20983;BME280;10650;51.528;6.748;2023-01-25T00:07:33;103527.69;;;3.36;68.11
20983;BME280;10650;51.528;6.748;2023-01-25T00:10:01;103528.09;;;3.28;68.25
20983;BME280;10650;51.528;6.748;2023-01-25T00:12:31;103529.19;;;3.32;69.00
20983;BME280;10650;51.528;6.748;2023-01-25T00:14:58;103517.91;;;3.35;68.35
20983;BME280;10650;51.528;6.748;2023-01-25T00:17:26;103515.19;;;3.33;68.68
20983;BME280;10650;51.528;6.748;2023-01-25T00:19:54;103521.88;;;3.28;68.00
20983;BME280;10650;51.528;6.748;2023-01-25T00:22:21;103520.16;;;3.28;68.83
20983;BME280;10650;51.528;6.748;2023-01-25T00:24:49;103518.53;;;3.31;68.30
20983;BME280;10650;51.528;6.748;2023-01-25T00:27:16;103515.78;;;3.29;69.03
20983;BME280;10650;51.528;6.748;2023-01-25T00:29:46;103506.34;;;3.33;68.70
20983;BME280;10650;51.528;6.748;2023-01-25T00:32:41;103520.16;;;3.28;68.05
20983;BME280;10650;51.528;6.748;2023-01-25T00:35:14;103500.63;;;3.26;68.82
20983;BME280;10650;51.528;6.748;2023-01-25T00:37:42;103505.22;;;3.29;68.65
20983;BME280;10650;51.528;6.748;2023-01-25T00:40:16;103500.22;;;3.34;68.58
20983;BME280;10650;51.528;6.748;2023-01-25T00:42:44;103499.50;;;3.36;68.90
20983;BME280;10650;51.528;6.748;2023-01-25T00:45:13;103502.25;;;3.38;68.99
20983;BME280;10650;51.528;6.748;2023-01-25T00:47:41;103490.88;;;3.39;69.01
20983;BME280;10650;51.528;6.748;2023-01-25T00:50:09;103489.13;;;3.39;68.96
20983;BME280;10650;51.528;6.748;2023-01-25T00:52:38;103489.13;;;3.39;68.43
20983;BME280;10650;51.528;6.748;2023-01-25T00:55:07;103486.28;;;3.36;68.54
20983;BME280;10650;51.528;6.748;2023-01-25T00:57:35;103488.84;;;3.35;68.67
20983;BME280;10650;51.528;6.748;2023-01-25T01:00:04;103490.50;;;3.33;68.35
20983;BME280;10650;51.528;6.748;2023-01-25T01:02:33;103490.50;;;3.33;68.95
20983;BME280;10650;51.528;6.748;2023-01-25T01:05:01;103494.94;;;3.34;68.67
20983;BME280;10650;51.528;6.748;2023-01-25T01:07:28;103503.69;;;3.33;68.79
20983;BME280;10650;51.528;6.748;2023-01-25T01:09:56;103506.34;;;3.33;68.60
20983;BME280;10650;51.528;6.748;2023-01-25T01:12:25;103491.50;;;3.35;68.93
20983;BME280;10650;51.528;6.748;2023-01-25T01:14:53;103495.88;;;3.34;68.77
20983;BME280;10650;51.528;6.748;2023-01-25T01:17:21;103494.13;;;3.35;68.56
20983;BME280;10650;51.528;6.748;2023-01-25T01:19:50;103490.50;;;3.33;68.25
20983;BME280;10650;51.528;6.748;2023-01-25T01:22:18;103483.47;;;3.33;68.94
20983;BME280;10650;51.528;6.748;2023-01-25T01:24:46;103483.56;;;3.35;68.23
20983;BME280;10650;51.528;6.748;2023-01-25T01:27:14;103485.41;;;3.36;68.78
20983;BME280;10650;51.528;6.748;2023-01-25T01:29:42;103485.41;;;3.36;68.42
20983;BME280;10650;51.528;6.748;2023-01-25T01:32:10;103487.25;;;3.37;68.16
20983;BME280;10650;51.528;6.748;2023-01-25T01:34:38;103488.13;;;3.37;68.97
20983;BME280;10650;51.528;6.748;2023-01-25T01:37:07;103482.56;;;3.33;68.48
20983;BME280;10650;51.528;6.748;2023-01-25T01:39:34;103482.38;;;3.29;68.55
20983;BME280;10650;51.528;6.748;2023-01-25T01:42:02;103480.25;;;3.24;68.04
20983;BME280;10650;51.528;6.748;2023-01-25T01:44:45;103474.72;;;3.21;68.53
20983;BME280;10650;51.528;6.748;2023-01-25T01:47:14;103480.09;;;3.22;69.28
20983;BME280;10650;51.528;6.748;2023-01-25T01:49:49;103472.19;;;3.22;69.08
20983;BME280;10650;51.528;6.748;2023-01-25T01:52:22;103473.13;;;3.23;69.29
20983;BME280;10650;51.528;6.748;2023-01-25T01:54:53;103475.84;;;3.24;69.29
20983;BME280;10650;51.528;6.748;2023-01-25T01:57:25;103476.84;;;3.26;68.93
20983;BME280;10650;51.528;6.748;2023-01-25T02:00:00;103468.81;;;3.25;68.83
20983;BME280;10650;51.528;6.748;2023-01-25T02:02:29;103476.94;;;3.28;68.91
20983;BME280;10650;51.528;6.748;2023-01-25T02:05:00;103474.44;;;3.29;68.99
20983;BME280;10650;51.528;6.748;2023-01-25T02:07:33;103475.06;;;3.25;69.26
20983;BME280;10650;51.528;6.748;2023-01-25T02:10:03;103470.47;;;3.23;69.20
20983;BME280;10650;51.528;6.748;2023-01-25T02:12:31;103475.38;;;3.17;68.72
20983;BME280;10650;51.528;6.748;2023-01-25T02:14:59;103474.44;;;3.16;69.27
20983;BME280;10650;51.528;6.748;2023-01-25T02:17:28;103468.16;;;3.14;68.85
20983;BME280;10650;51.528;6.748;2023-01-25T02:20:00;103473.09;;;3.09;69.01
20983;BME280;10650;51.528;6.748;2023-01-25T02:22:39;103472.81;;;3.05;68.97
20983;BME280;10650;51.528;6.748;2023-01-25T02:25:10;103470.88;;;3.02;69.33
20983;BME280;10650;51.528;6.748;2023-01-25T02:27:41;103472.44;;;2.99;69.38
20983;BME280;10650;51.528;6.748;2023-01-25T02:30:12;103473.13;;;2.96;69.66
20983;BME280;10650;51.528;6.748;2023-01-25T02:32:40;103467.94;;;2.98;69.42
20983;BME280;10650;51.528;6.748;2023-01-25T02:35:16;103475.06;;;2.99;69.35
20983;BME280;10650;51.528;6.748;2023-01-25T02:37:45;103464.41;;;2.97;69.12
20983;BME280;10650;51.528;6.748;2023-01-25T02:40:14;103462.66;;;2.98;69.61
20983;BME280;10650;51.528;6.748;2023-01-25T02:42:44;103467.34;;;3.02;69.03
20983;BME280;10650;51.528;6.748;2023-01-25T02:45:14;103465.94;;;3.07;69.17
20983;BME280;10650;51.528;6.748;2023-01-25T02:47:42;103470.88;;;3.02;68.91
20983;BME280;10650;51.528;6.748;2023-01-25T02:50:10;103468.25;;;3.02;68.84
20983;BME280;10650;51.528;6.748;2023-01-25T02:52:41;103460.72;;;2.95;68.93
20983;BME280;10650;51.528;6.748;2023-01-25T02:55:09;103457.19;;;2.94;69.28
20983;BME280;10650;51.528;6.748;2023-01-25T02:57:38;103464.63;;;2.87;68.78
20983;BME280;10650;51.528;6.748;2023-01-25T03:00:07;103467.75;;;2.81;69.18
20983;BME280;10650;51.528;6.748;2023-01-25T03:02:35;103465.53;;;2.74;68.97
20983;BME280;10650;51.528;6.748;2023-01-25T03:05:03;103460.25;;;2.74;69.04
20983;BME280;10650;51.528;6.748;2023-01-25T03:07:32;103463.28;;;2.80;69.84
20983;BME280;10650;51.528;6.748;2023-01-25T03:09:59;103457.59;;;2.87;69.33
20983;BME280;10650;51.528;6.748;2023-01-25T03:12:27;103455.16;;;2.90;69.52
20983;BME280;10650;51.528;6.748;2023-01-25T03:14:56;103451.50;;;2.88;69.94
20983;BME280;10650;51.528;6.748;2023-01-25T03:17:24;103446.22;;;2.88;69.27
20983;BME280;10650;51.528;6.748;2023-01-25T03:19:51;103448.16;;;2.91;69.93
20983;BME280;10650;51.528;6.748;2023-01-25T03:22:20;103441.44;;;2.96;69.51
20983;BME280;10650;51.528;6.748;2023-01-25T03:24:48;103440.94;;;2.88;69.77
20983;BME280;10650;51.528;6.748;2023-01-25T03:27:15;103437.28;;;2.86;69.10
20983;BME280;10650;51.528;6.748;2023-01-25T03:29:44;103438.00;;;2.84;69.66
20983;BME280;10650;51.528;6.748;2023-01-25T03:32:13;103433.34;;;2.80;69.32
20983;BME280;10650;51.528;6.748;2023-01-25T03:34:41;103435.03;;;2.79;69.71
20983;BME280;10650;51.528;6.748;2023-01-25T03:37:09;103429.84;;;2.81;70.07
20983;BME280;10650;51.528;6.748;2023-01-25T03:39:36;103431.50;;;2.79;69.79
20983;BME280;10650;51.528;6.748;2023-01-25T03:42:04;103422.69;;;2.78;69.85
20983;BME280;10650;51.528;6.748;2023-01-25T03:44:32;103421.84;;;2.79;70.40
20983;BME280;10650;51.528;6.748;2023-01-25T03:47:00;103414.94;;;2.81;70.14
20983;BME280;10650;51.528;6.748;2023-01-25T03:49:29;103414.13;;;2.82;70.40
20983;BME280;10650;51.528;6.748;2023-01-25T03:51:57;103410.66;;;2.83;69.93
20983;BME280;10650;51.528;6.748;2023-01-25T03:54:25;103411.69;;;2.85;70.21
20983;BME280;10650;51.528;6.748;2023-01-25T03:56:52;103417.97;;;2.87;69.61
20983;BME280;10650;51.528;6.748;2023-01-25T03:59:20;103419.72;;;2.87;70.25
20983;BME280;10650;51.528;6.748;2023-01-25T04:01:48;103412.78;;;2.89;69.93
20983;BME280;10650;51.528;6.748;2023-01-25T04:04:16;103408.66;;;2.92;70.05
20983;BME280;10650;51.528;6.748;2023-01-25T04:06:45;103404.06;;;2.90;69.84
20983;BME280;10650;51.528;6.748;2023-01-25T04:09:12;103397.84;;;2.89;69.81
20983;BME280;10650;51.528;6.748;2023-01-25T04:11:40;103397.03;;;2.90;69.35
20983;BME280;10650;51.528;6.748;2023-01-25T04:14:09;103391.66;;;2.89;70.03
20983;BME280;10650;51.528;6.748;2023-01-25T04:16:36;103393.50;;;2.90;69.68
20983;BME280;10650;51.528;6.748;2023-01-25T04:19:04;103397.25;;;2.93;69.54
20983;BME280;10650;51.528;6.748;2023-01-25T04:21:32;103392.06;;;2.95;69.36
20983;BME280;10650;51.528;6.748;2023-01-25T04:24:01;103388.81;;;2.99;69.44
20983;BME280;10650;51.528;6.748;2023-01-25T04:26:29;103379.69;;;2.94;69.73
20983;BME280;10650;51.528;6.748;2023-01-25T04:28:56;103378.56;;;2.90;69.38
20983;BME280;10650;51.528;6.748;2023-01-25T04:31:24;103372.88;;;2.84;69.78
20983;BME280;10650;51.528;6.748;2023-01-25T04:33:52;103369.03;;;2.79;69.81
20983;BME280;10650;51.528;6.748;2023-01-25T04:36:19;103369.72;;;2.76;69.63
20983;BME280;10650;51.528;6.748;2023-01-25T04:38:47;103371.19;;;2.71;69.62
20983;BME280;10650;51.528;6.748;2023-01-25T04:41:16;103371.69;;;2.66;69.61
20983;BME280;10650;51.528;6.748;2023-01-25T04:43:44;103365.41;;;2.64;69.68
20983;BME280;10650;51.528;6.748;2023-01-25T04:46:11;103366.91;;;2.60;69.51
20983;BME280;10650;51.528;6.748;2023-01-25T04:48:39;103363.47;;;2.61;70.21
20983;BME280;10650;51.528;6.748;2023-01-25T04:51:07;103364.66;;;2.66;69.83
20983;BME280;10650;51.528;6.748;2023-01-25T04:53:35;103356.03;;;2.69;70.10
20983;BME280;10650;51.528;6.748;2023-01-25T04:56:03;103352.50;;;2.68;70.00
20983;BME280;10650;51.528;6.748;2023-01-25T04:58:32;103354.84;;;2.64;69.46
20983;BME280;10650;51.528;6.748;2023-01-25T05:01:00;103356.47;;;2.62;70.13
20983;BME280;10650;51.528;6.748;2023-01-25T05:03:28;103360.94;;;2.63;70.08
20983;BME280;10650;51.528;6.748;2023-01-25T05:05:56;103361.03;;;2.64;70.02
20983;BME280;10650;51.528;6.748;2023-01-25T05:08:24;103367.41;;;2.68;70.31
20983;BME280;10650;51.528;6.748;2023-01-25T05:10:52;103363.88;;;2.67;69.82
20983;BME280;10650;51.528;6.748;2023-01-25T05:13:20;103361.75;;;2.62;69.62
20983;BME280;10650;51.528;6.748;2023-01-25T05:15:49;103361.53;;;2.58;69.58
20983;BME280;10650;51.528;6.748;2023-01-25T05:18:17;103363.06;;;2.55;69.50
20983;BME280;10650;51.528;6.748;2023-01-25T05:20:44;103365.78;;;2.56;70.15
20983;BME280;10650;51.528;6.748;2023-01-25T05:23:12;103358.91;;;2.58;69.76
20983;BME280;10650;51.528;6.748;2023-01-25T05:25:41;103358.91;;;2.58;69.94
20983;BME280;10650;51.528;6.748;2023-01-25T05:28:27;103355.97;;;2.54;69.70
20983;BME280;10650;51.528;6.748;2023-01-25T05:30:56;103352.50;;;2.55;70.08
20983;BME280;10650;51.528;6.748;2023-01-25T05:33:24;103357.06;;;2.57;70.01
20983;BME280;10650;51.528;6.748;2023-01-25T05:35:51;103352.59;;;2.56;69.84
20983;BME280;10650;51.528;6.748;2023-01-25T05:38:19;103355.03;;;2.53;69.57
20983;BME280;10650;51.528;6.748;2023-01-25T05:40:47;103358.59;;;2.54;69.96
20983;BME280;10650;51.528;6.748;2023-01-25T05:43:14;103358.00;;;2.58;70.24
20983;BME280;10650;51.528;6.748;2023-01-25T05:45:42;103361.53;;;2.58;69.82
20983;BME280;10650;51.528;6.748;2023-01-25T05:48:12;103362.44;;;2.59;69.79
20983;BME280;10650;51.528;6.748;2023-01-25T05:50:39;103365.09;;;2.59;69.95
20983;BME280;10650;51.528;6.748;2023-01-25T05:53:07;103366.91;;;2.60;69.94
20983;BME280;10650;51.528;6.748;2023-01-25T05:55:35;103361.75;;;2.62;69.85
20983;BME280;10650;51.528;6.748;2023-01-25T05:58:03;103354.72;;;2.62;70.12
20983;BME280;10650;51.528;6.748;2023-01-25T06:00:30;103353.13;;;2.64;70.08
20983;BME280;10650;51.528;6.748;2023-01-25T06:02:59;103352.22;;;2.64;70.07
20983;BME280;10650;51.528;6.748;2023-01-25T06:05:28;103347.84;;;2.64;69.41
20983;BME280;10650;51.528;6.748;2023-01-25T06:07:57;103349.66;;;2.65;69.67
20983;BME280;10650;51.528;6.748;2023-01-25T06:10:25;103342.56;;;2.64;69.44
20983;BME280;10650;51.528;6.748;2023-01-25T06:12:56;103340.81;;;2.65;69.85
20983;BME280;10650;51.528;6.748;2023-01-25T06:15:24;103346.09;;;2.65;69.85
20983;BME280;10650;51.528;6.748;2023-01-25T06:17:53;103346.94;;;2.64;69.86
20983;BME280;10650;51.528;6.748;2023-01-25T06:20:21;103341.53;;;2.62;69.49
20983;BME280;10650;51.528;6.748;2023-01-25T06:22:50;103346.19;;;2.66;70.12
20983;BME280;10650;51.528;6.748;2023-01-25T06:25:18;103345.69;;;2.72;69.67
20983;BME280;10650;51.528;6.748;2023-01-25T06:27:46;103349.34;;;2.74;70.26
20983;BME280;10650;51.528;6.748;2023-01-25T06:30:14;103342.34;;;2.74;70.16
20983;BME280;10650;51.528;6.748;2023-01-25T06:32:41;103340.50;;;2.73;70.25
20983;BME280;10650;51.528;6.748;2023-01-25T06:35:09;103342.94;;;2.70;69.85
20983;BME280;10650;51.528;6.748;2023-01-25T06:37:37;103341.09;;;2.69;70.05
20983;BME280;10650;51.528;6.748;2023-01-25T06:40:07;103337.47;;;2.67;70.29
20983;BME280;10650;51.528;6.748;2023-01-25T06:42:35;103341.94;;;2.68;70.28
20983;BME280;10650;51.528;6.748;2023-01-25T06:45:04;103340.91;;;2.66;69.72
20983;BME280;10650;51.528;6.748;2023-01-25T06:47:32;103342.66;;;2.66;70.11
20983;BME280;10650;51.528;6.748;2023-01-25T06:50:00;103347.94;;;2.66;70.17
20983;BME280;10650;51.528;6.748;2023-01-25T06:52:28;103345.38;;;2.67;70.21
20983;BME280;10650;51.528;6.748;2023-01-25T06:54:57;103342.03;;;2.70;70.04
20983;BME280;10650;51.528;6.748;2023-01-25T06:57:26;103343.66;;;2.68;70.20
20983;BME280;10650;51.528;6.748;2023-01-25T06:59:55;103341.84;;;2.67;70.03
20983;BME280;10650;51.528;6.748;2023-01-25T07:02:22;103344.28;;;2.64;69.77
20983;BME280;10650;51.528;6.748;2023-01-25T07:04:50;103344.28;;;2.64;70.13
20983;BME280;10650;51.528;6.748;2023-01-25T07:07:18;103347.84;;;2.64;70.07
20983;BME280;10650;51.528;6.748;2023-01-25T07:09:46;103342.16;;;2.58;69.91
20983;BME280;10650;51.528;6.748;2023-01-25T07:12:14;103346.22;;;2.53;69.56
20983;BME280;10650;51.528;6.748;2023-01-25T07:14:44;103345.91;;;2.48;70.33
20983;BME280;10650;51.528;6.748;2023-01-25T07:17:13;103344.09;;;2.47;70.48
20983;BME280;10650;51.528;6.748;2023-01-25T07:19:40;103340.00;;;2.39;70.12
20983;BME280;10650;51.528;6.748;2023-01-25T07:22:08;103335.88;;;2.42;70.88
20983;BME280;10650;51.528;6.748;2023-01-25T07:24:36;103332.53;;;2.45;70.15
20983;BME280;10650;51.528;6.748;2023-01-25T07:27:04;103337.38;;;2.39;69.98
20983;BME280;10650;51.528;6.748;2023-01-25T07:29:31;103337.69;;;2.43;70.20
20983;BME280;10650;51.528;6.748;2023-01-25T07:32:00;103328.16;;;2.46;70.73
20983;BME280;10650;51.528;6.748;2023-01-25T07:34:28;103328.94;;;2.45;70.80
20983;BME280;10650;51.528;6.748;2023-01-25T07:36:56;103337.47;;;2.40;70.83
20983;BME280;10650;51.528;6.748;2023-01-25T07:39:24;103338.09;;;2.36;70.18
20983;BME280;10650;51.528;6.748;2023-01-25T07:41:51;103334.53;;;2.36;70.45
20983;BME280;10650;51.528;6.748;2023-01-25T07:44:19;103331.19;;;2.38;70.77
20983;BME280;10650;51.528;6.748;2023-01-25T07:46:47;103326.03;;;2.40;70.72
20983;BME280;10650;51.528;6.748;2023-01-25T07:49:16;103325.63;;;2.34;70.09
20983;BME280;10650;51.528;6.748;2023-01-25T07:51:43;103324.91;;;2.23;70.23
20983;BME280;10650;51.528;6.748;2023-01-25T07:54:11;103323.69;;;2.31;71.16
20983;BME280;10650;51.528;6.748;2023-01-25T07:56:39;103324.50;;;2.30;70.51
20983;BME280;10650;51.528;6.748;2023-01-25T07:59:11;103317.81;;;2.35;70.77
20983;BME280;10650;51.528;6.748;2023-01-25T08:01:39;103321.75;;;2.29;70.71
20983;BME280;10650;51.528;6.748;2023-01-25T08:04:07;103320.03;;;2.16;70.35
20983;BME280;10650;51.528;6.748;2023-01-25T08:06:37;103310.50;;;2.18;70.88
20983;BME280;10650;51.528;6.748;2023-01-25T08:09:07;103319.63;;;2.23;71.29
20983;BME280;10650;51.528;6.748;2023-01-25T08:11:35;103315.47;;;2.27;71.24
20983;BME280;10650;51.528;6.748;2023-01-25T08:14:03;103317.09;;;2.38;71.49
20983;BME280;10650;51.528;6.748;2023-01-25T08:16:31;103308.25;;;2.37;70.60
20983;BME280;10650;51.528;6.748;2023-01-25T08:19:00;103312.44;;;2.34;70.86
20983;BME280;10650;51.528;6.748;2023-01-25T08:21:30;103305.84;;;2.27;71.29
20983;BME280;10650;51.528;6.748;2023-01-25T08:24:01;103315.16;;;2.35;71.39
20983;BME280;10650;51.528;6.748;2023-01-25T08:26:30;103312.53;;;2.35;70.90
20983;BME280;10650;51.528;6.748;2023-01-25T08:28:58;103314.34;;;2.36;71.38
20983;BME280;10650;51.528;6.748;2023-01-25T08:31:28;103318.22;;;2.28;70.66
20983;BME280;10650;51.528;6.748;2023-01-25T08:33:57;103310.91;;;2.24;71.53
20983;BME280;10650;51.528;6.748;2023-01-25T08:36:25;103309.28;;;2.26;71.73
20983;BME280;10650;51.528;6.748;2023-01-25T08:38:55;103315.88;;;2.19;71.02
20983;BME280;10650;51.528;6.748;2023-01-25T08:41:26;103310.38;;;2.16;71.10
20983;BME280;10650;51.528;6.748;2023-01-25T08:43:54;103306.72;;;2.28;71.65
20983;BME280;10650;51.528;6.748;2023-01-25T08:46:24;103304.00;;;2.26;71.27
20983;BME280;10650;51.528;6.748;2023-01-25T08:48:56;103310.81;;;2.22;71.21
20983;BME280;10650;51.528;6.748;2023-01-25T08:51:24;103309.47;;;2.29;71.67
20983;BME280;10650;51.528;6.748;2023-01-25T08:53:53;103305.31;;;2.33;70.88
20983;BME280;10650;51.528;6.748;2023-01-25T08:56:20;103297.69;;;2.37;71.46
20983;BME280;10650;51.528;6.748;2023-01-25T08:58:50;103301.28;;;2.38;71.13
20983;BME280;10650;51.528;6.748;2023-01-25T09:01:18;103289.41;;;2.31;70.84
20983;BME280;10650;51.528;6.748;2023-01-25T09:03:48;103287.66;;;2.32;71.12
20983;BME280;10650;51.528;6.748;2023-01-25T09:06:17;103284.81;;;2.42;71.00
20983;BME280;10650;51.528;6.748;2023-01-25T09:08:46;103284.28;;;2.48;71.17
20983;BME280;10650;51.528;6.748;2023-01-25T09:11:16;103290.69;;;2.51;71.08
20983;BME280;10650;51.528;6.748;2023-01-25T09:13:44;103292.22;;;2.48;70.32
20983;BME280;10650;51.528;6.748;2023-01-25T09:16:16;103290.00;;;2.54;70.67
20983;BME280;10650;51.528;6.748;2023-01-25T09:18:46;103283.88;;;2.55;70.79
20983;BME280;10650;51.528;6.748;2023-01-25T09:21:17;103282.88;;;2.53;70.55
20983;BME280;10650;51.528;6.748;2023-01-25T09:23:46;103270.91;;;2.58;70.69
20983;BME280;10650;51.528;6.748;2023-01-25T09:26:23;103268.34;;;2.59;70.69
20983;BME280;10650;51.528;6.748;2023-01-25T09:28:52;103271.38;;;2.66;70.75
20983;BME280;10650;51.528;6.748;2023-01-25T09:31:21;103269.63;;;2.66;70.19
20983;BME280;10650;51.528;6.748;2023-01-25T09:33:51;103261.00;;;2.69;70.03
20983;BME280;10650;51.528;6.748;2023-01-25T09:36:19;103262.22;;;2.60;69.98
20983;BME280;10650;51.528;6.748;2023-01-25T09:38:47;103264.78;;;2.59;70.38
20983;BME280;10650;51.528;6.748;2023-01-25T09:41:25;103266.22;;;2.54;70.17
20983;BME280;10650;51.528;6.748;2023-01-25T09:44:08;103262.97;;;2.58;70.92
20983;BME280;10650;51.528;6.748;2023-01-25T09:46:43;103264.31;;;2.51;70.40
20983;BME280;10650;51.528;6.748;2023-01-25T09:49:28;103261.56;;;2.50;70.58
20983;BME280;10650;51.528;6.748;2023-01-25T09:54:48;103263.16;;;2.61;70.50
20983;BME280;10650;51.528;6.748;2023-01-25T09:57:20;103255.44;;;2.64;70.39
20983;BME280;10650;51.528;6.748;2023-01-25T09:59:49;103263.66;;;2.69;70.53
20983;BME280;10650;51.528;6.748;2023-01-25T10:02:29;103260.72;;;2.64;69.87
20983;BME280;10650;51.528;6.748;2023-01-25T10:05:06;103253.22;;;2.57;70.31
20983;BME280;10650;51.528;6.748;2023-01-25T10:07:46;103262.97;;;2.58;69.99
20983;BME280;10650;51.528;6.748;2023-01-25T10:10:19;103262.09;;;2.44;70.58
20983;BME280;10650;51.528;6.748;2023-01-25T10:12:49;103258.63;;;2.45;70.43
20983;BME280;10650;51.528;6.748;2023-01-25T10:15:19;103255.47;;;2.51;70.18
20983;BME280;10650;51.528;6.748;2023-01-25T10:17:55;103252.94;;;2.52;70.53
20983;BME280;10650;51.528;6.748;2023-01-25T10:20:32;103253.75;;;2.51;70.31
20983;BME280;10650;51.528;6.748;2023-01-25T10:26:18;103246.44;;;2.47;69.52
20983;BME280;10650;51.528;6.748;2023-01-25T10:28:54;103250.09;;;2.36;70.19
20983;BME280;10650;51.528;6.748;2023-01-25T10:31:28;103243.50;;;2.29;69.82
20983;BME280;10650;51.528;6.748;2023-01-25T10:34:01;103244.34;;;2.28;70.87
20983;BME280;10650;51.528;6.748;2023-01-25T10:36:39;103239.06;;;2.28;70.12
20983;BME280;10650;51.528;6.748;2023-01-25T10:39:09;103233.09;;;2.31;69.97
20983;BME280;10650;51.528;6.748;2023-01-25T10:41:38;103224.75;;;2.24;70.08
20983;BME280;10650;51.528;6.748;2023-01-25T10:44:10;103220.19;;;2.22;70.01
20983;BME280;10650;51.528;6.748;2023-01-25T10:46:56;103212.16;;;2.20;70.75
20983;BME280;10650;51.528;6.748;2023-01-25T10:49:30;103211.47;;;2.23;70.76
20983;BME280;10650;51.528;6.748;2023-01-25T10:52:12;103208.53;;;2.18;70.21
20983;BME280;10650;51.528;6.748;2023-01-25T10:54:41;103212.06;;;2.19;70.47
20983;BME280;10650;51.528;6.748;2023-01-25T10:57:14;103206.22;;;2.10;70.55
20983;BME280;10650;51.528;6.748;2023-01-25T10:59:45;103199.09;;;2.08;70.87
20983;BME280;10650;51.528;6.748;2023-01-25T11:02:43;103193.00;;;2.23;70.94
20983;BME280;10650;51.528;6.748;2023-01-25T11:05:30;103185.88;;;2.35;70.79
20983;BME280;10650;51.528;6.748;2023-01-25T11:08:18;103179.16;;;2.40;70.10
20983;BME280;10650;51.528;6.748;2023-01-25T11:10:48;103167.88;;;2.43;69.59
20983;BME280;10650;51.528;6.748;2023-01-25T11:13:21;103179.25;;;2.42;70.14
20983;BME280;10650;51.528;6.748;2023-01-25T11:15:51;103177.31;;;2.53;70.51
20983;BME280;10650;51.528;6.748;2023-01-25T11:18:22;103169.09;;;2.48;69.41
20983;BME280;10650;51.528;6.748;2023-01-25T11:21:10;103154.41;;;2.38;69.56
20983;BME280;10650;51.528;6.748;2023-01-25T11:23:40;103151.34;;;2.46;69.80
20983;BME280;10650;51.528;6.748;2023-01-25T11:26:13;103145.03;;;2.43;69.48
20983;BME280;10650;51.528;6.748;2023-01-25T11:28:42;103129.75;;;2.38;69.75
20983;BME280;10650;51.528;6.748;2023-01-25T11:31:12;103135.22;;;2.41;69.84
20983;BME280;10650;51.528;6.748;2023-01-25T11:33:40;103129.34;;;2.32;69.46
20983;BME280;10650;51.528;6.748;2023-01-25T11:36:16;103126.91;;;2.35;69.82
20983;BME280;10650;51.528;6.748;2023-01-25T11:39:03;103123.66;;;2.39;70.09
20983;BME280;10650;51.528;6.748;2023-01-25T11:41:45;103119.06;;;2.50;69.87
20983;BME280;10650;51.528;6.748;2023-01-25T11:44:51;103115.97;;;2.57;69.24
20983;BME280;10650;51.528;6.748;2023-01-25T11:47:37;103110.25;;;2.64;69.38
20983;BME280;10650;51.528;6.748;2023-01-25T11:50:13;103102.69;;;2.70;69.53
20983;BME280;10650;51.528;6.748;2023-01-25T11:52:57;103094.16;;;2.74;68.80
20983;BME280;10650;51.528;6.748;2023-01-25T11:55:34;103093.44;;;2.77;68.67
20983;BME280;10650;51.528;6.748;2023-01-25T11:58:22;103082.78;;;2.75;68.50
20983;BME280;10650;51.528;6.748;2023-01-25T12:01:06;103067.84;;;2.76;68.95
20983;BME280;10650;51.528;6.748;2023-01-25T12:06:51;103053.84;;;2.77;68.67
20983;BME280;10650;51.528;6.748;2023-01-25T12:09:36;103048.66;;;2.79;68.56
20983;BME280;10650;51.528;6.748;2023-01-25T12:12:15;103039.06;;;2.81;68.58
20983;BME280;10650;51.528;6.748;2023-01-25T12:15:07;103028.69;;;2.69;68.19
20983;BME280;10650;51.528;6.748;2023-01-25T12:17:48;103017.50;;;2.73;68.74
20983;BME280;10650;51.528;6.748;2023-01-25T12:20:30;103016.78;;;2.75;67.97
20983;BME280;10650;51.528;6.748;2023-01-25T12:23:27;103007.94;;;2.75;67.79
20983;BME280;10650;51.528;6.748;2023-01-25T12:26:09;103003.09;;;2.68;68.13
20983;BME280;10650;51.528;6.748;2023-01-25T12:28:43;102994.28;;;2.67;67.98
20983;BME280;10650;51.528;6.748;2023-01-25T12:31:16;102994.47;;;2.70;67.90
20983;BME280;10650;51.528;6.748;2023-01-25T12:33:49;102987.47;;;2.71;67.47
20983;BME280;10650;51.528;6.748;2023-01-25T12:36:23;102976.34;;;2.76;68.01
20983;BME280;10650;51.528;6.748;2023-01-25T12:38:56;102973.38;;;2.85;67.94
20983;BME280;10650;51.528;6.748;2023-01-25T12:41:35;102971.28;;;2.80;67.94
20983;BME280;10650;51.528;6.748;2023-01-25T12:44:10;102959.25;;;2.70;67.67
20983;BME280;10650;51.528;6.748;2023-01-25T12:46:44;102963.34;;;2.65;67.80
20983;BME280;10650;51.528;6.748;2023-01-25T12:49:19;102958.16;;;2.66;68.09
20983;BME280;10650;51.528;6.748;2023-01-25T12:51:50;102952.78;;;2.65;67.95
20983;BME280;10650;51.528;6.748;2023-01-25T12:54:23;102943.97;;;2.64;68.08
20983;BME280;10650;51.528;6.748;2023-01-25T12:57:04;102938.59;;;2.63;67.97
20983;BME280;10650;51.528;6.748;2023-01-25T12:59:41;102928.59;;;2.57;67.82
20983;BME280;10650;51.528;6.748;2023-01-25T13:02:41;102927.66;;;2.56;68.08
20983;BME280;10650;51.528;6.748;2023-01-25T13:05:18;102914.59;;;2.58;68.31
20983;BME280;10650;51.528;6.748;2023-01-25T13:07:55;102913.75;;;2.59;68.08
20983;BME280;10650;51.528;6.748;2023-01-25T13:10:28;102903.00;;;2.56;67.86
20983;BME280;10650;51.528;6.748;2023-01-25T13:13:00;102906.47;;;2.55;67.97
20983;BME280;10650;51.528;6.748;2023-01-25T13:15:37;102902.56;;;2.48;68.41
20983;BME280;10650;51.528;6.748;2023-01-25T13:18:39;102888.66;;;2.51;68.59
20983;BME280;10650;51.528;6.748;2023-01-25T13:21:10;102887.09;;;2.54;68.61
20983;BME280;10650;51.528;6.748;2023-01-25T13:23:40;102883.81;;;2.58;68.55
20983;BME280;10650;51.528;6.748;2023-01-25T13:26:37;102887.34;;;2.59;68.21
20983;BME280;10650;51.528;6.748;2023-01-25T13:35:38;102878.63;;;2.60;68.21